sensor_id;sensor_type;location;lat;lon;timestamp;P1;durP1;ratioP1;P2;durP2;ratioP2
3949;SDS011;53057;50.988;6.314;2023-02-12T00:00:41;230.43;;;87.80;;
3949;SDS011;53057;50.988;6.314;2023-02-12T00:03:08;244.07;;;87.27;;
3949;SDS011;53057;50.988;6.314;2023-02-12T00:05:38;245.47;;;86.87;;
3949;SDS011;53057;50.988;6.314;2023-02-12T00:08:06;257.10;;;93.40;;
3949;SDS011;53057;50.988;6.314;2023-02-12T00:10:33;246.50;;;88.73;;
3949;SDS011;53057;50.988;6.314;2023-02-12T00:12:59;250.47;;;87.10;;
3949;SDS011;53057;50.988;6.314;2023-02-12T00:15:26;274.73;;;91.07;;
3949;SDS011;53057;50.988;6.314;2023-02-12T00:17:52;246.70;;;83.23;;
3949;SDS011;53057;50.988;6.314;2023-02-12T00:20:19;245.20;;;86.20;;
3949;SDS011;53057;50.988;6.314;2023-02-12T00:22:45;239.30;;;84.83;;
3949;SDS011;53057;50.988;6.314;2023-02-12T00:25:12;249.77;;;88.37;;
3949;SDS011;53057;50.988;6.314;2023-02-12T00:27:40;249.43;;;85.73;;
3949;SDS011;53057;50.988;6.314;2023-02-12T00:30:06;253.53;;;84.03;;
3949;SDS011;53057;50.988;6.314;2023-02-12T00:32:33;258.97;;;91.17;;
3949;SDS011;53057;50.988;6.314;2023-02-12T00:35:00;254.40;;;85.70;;
3949;SDS011;53057;50.988;6.314;2023-02-12T00:37:27;241.20;;;83.37;;
3949;SDS011;53057;50.988;6.314;2023-02-12T00:39:53;240.07;;;82.90;;
3949;SDS011;53057;50.988;6.314;2023-02-12T00:42:20;251.07;;;82.27;;
3949;SDS011;53057;50.988;6.314;2023-02-12T00:44:46;236.23;;;82.47;;
3949;SDS011;53057;50.988;6.314;2023-02-12T00:47:13;242.77;;;82.17;;
3949;SDS011;53057;50.988;6.314;2023-02-12T00:49:42;252.83;;;81.97;;
3949;SDS011;53057;50.988;6.314;2023-02-12T00:52:08;252.37;;;86.60;;
3949;SDS011;53057;50.988;6.314;2023-02-12T00:54:35;290.40;;;90.70;;
3949;SDS011;53057;50.988;6.314;2023-02-12T00:57:02;251.63;;;86.77;;
3949;SDS011;53057;50.988;6.314;2023-02-12T00:59:28;276.80;;;88.83;;
3949;SDS011;53057;50.988;6.314;2023-02-12T01:01:55;270.57;;;83.17;;
3949;SDS011;53057;50.988;6.314;2023-02-12T01:04:22;283.60;;;91.17;;
3949;SDS011;53057;50.988;6.314;2023-02-12T01:06:49;292.53;;;87.10;;
3949;SDS011;53057;50.988;6.314;2023-02-12T01:09:15;269.33;;;87.33;;
3949;SDS011;53057;50.988;6.314;2023-02-12T01:11:42;266.00;;;90.03;;
3949;SDS011;53057;50.988;6.314;2023-02-12T01:14:09;265.77;;;86.93;;
3949;SDS011;53057;50.988;6.314;2023-02-12T01:16:35;291.27;;;90.27;;
3949;SDS011;53057;50.988;6.314;2023-02-12T01:19:02;288.57;;;87.53;;
3949;SDS011;53057;50.988;6.314;2023-02-12T01:21:30;275.97;;;86.73;;
3949;SDS011;53057;50.988;6.314;2023-02-12T01:23:57;288.47;;;91.40;;
3949;SDS011;53057;50.988;6.314;2023-02-12T01:26:24;281.70;;;87.93;;
3949;SDS011;53057;50.988;6.314;2023-02-12T01:28:52;339.90;;;123.97;;
3949;SDS011;53057;50.988;6.314;2023-02-12T01:31:20;292.33;;;94.47;;
3949;SDS011;53057;50.988;6.314;2023-02-12T01:33:49;264.37;;;91.33;;
3949;SDS011;53057;50.988;6.314;2023-02-12T01:36:16;302.03;;;92.37;;
3949;SDS011;53057;50.988;6.314;2023-02-12T01:38:44;291.90;;;93.37;;
3949;SDS011;53057;50.988;6.314;2023-02-12T01:41:13;295.40;;;91.07;;
3949;SDS011;53057;50.988;6.314;2023-02-12T01:43:40;274.30;;;88.93;;
3949;SDS011;53057;50.988;6.314;2023-02-12T01:46:09;263.23;;;92.07;;
3949;SDS011;53057;50.988;6.314;2023-02-12T01:48:38;299.53;;;92.20;;
3949;SDS011;53057;50.988;6.314;2023-02-12T01:51:06;263.07;;;87.57;;
3949;SDS011;53057;50.988;6.314;2023-02-12T01:53:36;286.10;;;89.40;;
3949;SDS011;53057;50.988;6.314;2023-02-12T01:56:04;250.67;;;82.40;;
3949;SDS011;53057;50.988;6.314;2023-02-12T01:58:33;265.23;;;88.60;;
3949;SDS011;53057;50.988;6.314;2023-02-12T02:01:02;258.33;;;86.53;;
3949;SDS011;53057;50.988;6.314;2023-02-12T02:03:30;244.37;;;82.67;;
3949;SDS011;53057;50.988;6.314;2023-02-12T02:06:00;239.03;;;79.87;;
3949;SDS011;53057;50.988;6.314;2023-02-12T02:08:29;289.53;;;86.27;;
3949;SDS011;53057;50.988;6.314;2023-02-12T02:10:56;241.37;;;86.63;;
3949;SDS011;53057;50.988;6.314;2023-02-12T02:13:22;281.17;;;91.70;;
3949;SDS011;53057;50.988;6.314;2023-02-12T02:16:20;250.67;;;85.90;;
3949;SDS011;53057;50.988;6.314;2023-02-12T02:18:55;267.60;;;82.70;;
3949;SDS011;53057;50.988;6.314;2023-02-12T02:21:37;261.67;;;83.10;;
3949;SDS011;53057;50.988;6.314;2023-02-12T02:32:17;242.57;;;79.90;;
3949;SDS011;53057;50.988;6.314;2023-02-12T02:34:57;261.90;;;77.03;;
3949;SDS011;53057;50.988;6.314;2023-02-12T02:37:30;256.50;;;86.07;;
3949;SDS011;53057;50.988;6.314;2023-02-12T02:40:04;276.33;;;88.00;;
3949;SDS011;53057;50.988;6.314;2023-02-12T02:42:36;248.33;;;85.23;;
3949;SDS011;53057;50.988;6.314;2023-02-12T02:45:11;270.43;;;82.93;;
3949;SDS011;53057;50.988;6.314;2023-02-12T02:47:40;252.80;;;83.37;;
3949;SDS011;53057;50.988;6.314;2023-02-12T02:50:11;260.50;;;84.77;;
3949;SDS011;53057;50.988;6.314;2023-02-12T02:52:39;256.33;;;82.47;;
3949;SDS011;53057;50.988;6.314;2023-02-12T02:55:09;248.37;;;83.47;;
3949;SDS011;53057;50.988;6.314;2023-02-12T02:57:50;259.70;;;83.77;;
3949;SDS011;53057;50.988;6.314;2023-02-12T03:02:55;248.50;;;87.17;;
3949;SDS011;53057;50.988;6.314;2023-02-12T03:07:58;242.27;;;82.23;;
3949;SDS011;53057;50.988;6.314;2023-02-12T03:10:30;241.47;;;80.00;;
3949;SDS011;53057;50.988;6.314;2023-02-12T03:15:30;254.80;;;82.73;;
3949;SDS011;53057;50.988;6.314;2023-02-12T03:17:58;245.40;;;80.87;;
3949;SDS011;53057;50.988;6.314;2023-02-12T03:20:28;245.97;;;82.03;;
3949;SDS011;53057;50.988;6.314;2023-02-12T03:23:06;241.47;;;85.40;;
3949;SDS011;53057;50.988;6.314;2023-02-12T03:25:37;273.20;;;86.77;;
3949;SDS011;53057;50.988;6.314;2023-02-12T03:28:13;253.30;;;80.77;;
3949;SDS011;53057;50.988;6.314;2023-02-12T03:30:43;245.57;;;80.17;;
3949;SDS011;53057;50.988;6.314;2023-02-12T03:33:14;224.43;;;78.70;;
3949;SDS011;53057;50.988;6.314;2023-02-12T03:35:57;250.03;;;86.03;;
3949;SDS011;53057;50.988;6.314;2023-02-12T03:41:43;197.07;;;72.60;;
3949;SDS011;53057;50.988;6.314;2023-02-12T03:43:47;207.17;;;76.60;;
3949;SDS011;53057;50.988;6.314;2023-02-12T03:46:17;191.27;;;73.83;;
3949;SDS011;53057;50.988;6.314;2023-02-12T03:48:55;202.13;;;72.37;;
3949;SDS011;53057;50.988;6.314;2023-02-12T03:53:50;195.23;;;69.67;;
3949;SDS011;53057;50.988;6.314;2023-02-12T03:59:03;179.87;;;68.70;;
3949;SDS011;53057;50.988;6.314;2023-02-12T04:01:30;187.23;;;70.77;;
3949;SDS011;53057;50.988;6.314;2023-02-12T04:03:57;196.97;;;69.77;;
3949;SDS011;53057;50.988;6.314;2023-02-12T04:06:25;169.30;;;69.17;;
3949;SDS011;53057;50.988;6.314;2023-02-12T04:08:52;176.80;;;65.13;;
3949;SDS011;53057;50.988;6.314;2023-02-12T04:13:53;170.47;;;66.63;;
3949;SDS011;53057;50.988;6.314;2023-02-12T04:16:29;187.13;;;67.37;;
3949;SDS011;53057;50.988;6.314;2023-02-12T04:18:59;177.50;;;67.93;;
3949;SDS011;53057;50.988;6.314;2023-02-12T04:21:31;181.37;;;68.50;;
3949;SDS011;53057;50.988;6.314;2023-02-12T04:24:07;187.30;;;70.17;;
3949;SDS011;53057;50.988;6.314;2023-02-12T04:32:03;179.30;;;67.87;;
3949;SDS011;53057;50.988;6.314;2023-02-12T04:37:01;192.43;;;71.60;;
3949;SDS011;53057;50.988;6.314;2023-02-12T04:39:29;183.63;;;71.07;;
3949;SDS011;53057;50.988;6.314;2023-02-12T04:42:00;195.73;;;70.90;;
3949;SDS011;53057;50.988;6.314;2023-02-12T04:44:28;184.00;;;71.40;;
3949;SDS011;53057;50.988;6.314;2023-02-12T04:46:55;183.47;;;68.67;;
3949;SDS011;53057;50.988;6.314;2023-02-12T04:49:22;187.80;;;66.60;;
3949;SDS011;53057;50.988;6.314;2023-02-12T04:51:49;184.97;;;71.10;;
3949;SDS011;53057;50.988;6.314;2023-02-12T04:54:16;212.60;;;71.90;;
3949;SDS011;53057;50.988;6.314;2023-02-12T04:56:43;196.00;;;69.70;;
3949;SDS011;53057;50.988;6.314;2023-02-12T04:59:10;213.27;;;72.30;;
3949;SDS011;53057;50.988;6.314;2023-02-12T05:01:37;176.03;;;69.20;;
3949;SDS011;53057;50.988;6.314;2023-02-12T05:04:04;192.33;;;72.10;;
3949;SDS011;53057;50.988;6.314;2023-02-12T05:06:33;209.00;;;76.30;;
3949;SDS011;53057;50.988;6.314;2023-02-12T05:09:00;194.63;;;72.43;;
3949;SDS011;53057;50.988;6.314;2023-02-12T05:11:26;185.23;;;69.50;;
3949;SDS011;53057;50.988;6.314;2023-02-12T05:13:53;202.17;;;72.83;;
3949;SDS011;53057;50.988;6.314;2023-02-12T05:16:20;179.20;;;69.27;;
3949;SDS011;53057;50.988;6.314;2023-02-12T05:18:47;177.23;;;67.80;;
3949;SDS011;53057;50.988;6.314;2023-02-12T05:21:13;183.57;;;65.10;;
3949;SDS011;53057;50.988;6.314;2023-02-12T05:23:40;191.93;;;69.00;;
3949;SDS011;53057;50.988;6.314;2023-02-12T05:26:11;174.00;;;66.57;;
3949;SDS011;53057;50.988;6.314;2023-02-12T05:28:38;190.77;;;72.70;;
3949;SDS011;53057;50.988;6.314;2023-02-12T05:31:06;186.80;;;70.97;;
3949;SDS011;53057;50.988;6.314;2023-02-12T05:33:34;198.57;;;67.20;;
3949;SDS011;53057;50.988;6.314;2023-02-12T05:36:07;212.33;;;68.20;;
3949;SDS011;53057;50.988;6.314;2023-02-12T05:38:34;202.90;;;74.17;;
3949;SDS011;53057;50.988;6.314;2023-02-12T05:41:05;182.23;;;70.77;;
3949;SDS011;53057;50.988;6.314;2023-02-12T05:43:32;193.33;;;72.27;;
3949;SDS011;53057;50.988;6.314;2023-02-12T05:45:59;202.00;;;72.43;;
3949;SDS011;53057;50.988;6.314;2023-02-12T05:48:26;177.97;;;70.07;;
3949;SDS011;53057;50.988;6.314;2023-02-12T05:50:53;205.40;;;71.90;;
3949;SDS011;53057;50.988;6.314;2023-02-12T05:53:20;188.33;;;65.60;;
3949;SDS011;53057;50.988;6.314;2023-02-12T05:55:46;187.90;;;73.70;;
3949;SDS011;53057;50.988;6.314;2023-02-12T05:58:13;179.37;;;71.20;;
3949;SDS011;53057;50.988;6.314;2023-02-12T06:00:41;190.33;;;73.10;;
3949;SDS011;53057;50.988;6.314;2023-02-12T06:03:08;180.90;;;66.17;;
3949;SDS011;53057;50.988;6.314;2023-02-12T06:05:34;185.03;;;71.27;;
3949;SDS011;53057;50.988;6.314;2023-02-12T06:08:01;186.57;;;72.47;;
3949;SDS011;53057;50.988;6.314;2023-02-12T06:10:27;177.40;;;69.40;;
3949;SDS011;53057;50.988;6.314;2023-02-12T06:12:54;188.87;;;68.90;;
3949;SDS011;53057;50.988;6.314;2023-02-12T06:15:21;178.20;;;65.57;;
3949;SDS011;53057;50.988;6.314;2023-02-12T06:17:47;177.27;;;66.37;;
3949;SDS011;53057;50.988;6.314;2023-02-12T06:20:14;197.20;;;71.40;;
3949;SDS011;53057;50.988;6.314;2023-02-12T06:22:40;156.20;;;60.23;;
3949;SDS011;53057;50.988;6.314;2023-02-12T06:25:07;186.93;;;68.73;;
3949;SDS011;53057;50.988;6.314;2023-02-12T06:27:34;161.40;;;63.57;;
3949;SDS011;53057;50.988;6.314;2023-02-12T06:30:00;165.27;;;62.27;;
3949;SDS011;53057;50.988;6.314;2023-02-12T06:32:27;174.10;;;65.73;;
3949;SDS011;53057;50.988;6.314;2023-02-12T06:34:53;180.07;;;67.17;;
3949;SDS011;53057;50.988;6.314;2023-02-12T06:37:20;176.67;;;68.60;;
3949;SDS011;53057;50.988;6.314;2023-02-12T06:39:47;166.40;;;65.83;;
3949;SDS011;53057;50.988;6.314;2023-02-12T06:42:13;179.50;;;68.67;;
3949;SDS011;53057;50.988;6.314;2023-02-12T06:44:40;192.67;;;72.50;;
3949;SDS011;53057;50.988;6.314;2023-02-12T06:47:07;184.10;;;68.13;;
3949;SDS011;53057;50.988;6.314;2023-02-12T06:49:33;182.70;;;66.10;;
3949;SDS011;53057;50.988;6.314;2023-02-12T06:52:00;160.80;;;61.80;;
3949;SDS011;53057;50.988;6.314;2023-02-12T06:54:28;170.77;;;64.20;;
3949;SDS011;53057;50.988;6.314;2023-02-12T06:56:55;158.13;;;61.13;;
3949;SDS011;53057;50.988;6.314;2023-02-12T06:59:21;164.03;;;64.50;;
3949;SDS011;53057;50.988;6.314;2023-02-12T07:01:48;169.27;;;63.90;;
3949;SDS011;53057;50.988;6.314;2023-02-12T07:04:15;165.90;;;68.17;;
3949;SDS011;53057;50.988;6.314;2023-02-12T07:06:42;169.97;;;63.20;;
3949;SDS011;53057;50.988;6.314;2023-02-12T07:09:08;176.20;;;64.90;;
3949;SDS011;53057;50.988;6.314;2023-02-12T07:11:35;176.27;;;62.23;;
3949;SDS011;53057;50.988;6.314;2023-02-12T07:14:04;154.33;;;57.77;;
3949;SDS011;53057;50.988;6.314;2023-02-12T07:16:31;168.67;;;60.43;;
3949;SDS011;53057;50.988;6.314;2023-02-12T07:18:57;187.87;;;67.20;;
3949;SDS011;53057;50.988;6.314;2023-02-12T07:21:24;149.50;;;56.50;;
3949;SDS011;53057;50.988;6.314;2023-02-12T07:23:51;171.80;;;58.20;;
3949;SDS011;53057;50.988;6.314;2023-02-12T07:26:18;172.37;;;63.63;;
3949;SDS011;53057;50.988;6.314;2023-02-12T07:28:45;183.17;;;63.33;;
3949;SDS011;53057;50.988;6.314;2023-02-12T07:31:13;191.13;;;62.70;;
3949;SDS011;53057;50.988;6.314;2023-02-12T07:33:40;193.60;;;62.07;;
3949;SDS011;53057;50.988;6.314;2023-02-12T07:36:10;199.30;;;67.87;;
3949;SDS011;53057;50.988;6.314;2023-02-12T07:38:36;180.27;;;63.00;;
3949;SDS011;53057;50.988;6.314;2023-02-12T07:41:08;208.90;;;69.73;;
3949;SDS011;53057;50.988;6.314;2023-02-12T07:43:36;226.37;;;74.57;;
3949;SDS011;53057;50.988;6.314;2023-02-12T07:46:07;215.40;;;95.20;;
3949;SDS011;53057;50.988;6.314;2023-02-12T07:48:33;214.60;;;85.13;;
3949;SDS011;53057;50.988;6.314;2023-02-12T07:51:04;190.87;;;69.30;;
3949;SDS011;53057;50.988;6.314;2023-02-12T07:53:31;195.17;;;66.90;;
3949;SDS011;53057;50.988;6.314;2023-02-12T07:56:11;192.37;;;67.07;;
3949;SDS011;53057;50.988;6.314;2023-02-12T07:58:38;205.43;;;68.80;;
3949;SDS011;53057;50.988;6.314;2023-02-12T08:01:12;198.57;;;74.60;;
3949;SDS011;53057;50.988;6.314;2023-02-12T08:03:38;234.00;;;98.40;;
3949;SDS011;53057;50.988;6.314;2023-02-12T08:06:09;211.37;;;93.53;;
3949;SDS011;53057;50.988;6.314;2023-02-12T08:08:36;212.40;;;88.17;;
3949;SDS011;53057;50.988;6.314;2023-02-12T08:11:07;226.13;;;86.80;;
3949;SDS011;53057;50.988;6.314;2023-02-12T08:13:34;198.83;;;69.23;;
3949;SDS011;53057;50.988;6.314;2023-02-12T08:16:02;205.10;;;77.30;;
3949;SDS011;53057;50.988;6.314;2023-02-12T08:18:30;204.30;;;70.10;;
3949;SDS011;53057;50.988;6.314;2023-02-12T08:21:00;197.27;;;71.33;;
3949;SDS011;53057;50.988;6.314;2023-02-12T08:23:28;195.87;;;68.70;;
3949;SDS011;53057;50.988;6.314;2023-02-12T08:26:02;179.63;;;72.60;;
3949;SDS011;53057;50.988;6.314;2023-02-12T08:28:29;183.03;;;68.00;;
3949;SDS011;53057;50.988;6.314;2023-02-12T08:31:00;173.90;;;64.27;;
3949;SDS011;53057;50.988;6.314;2023-02-12T08:33:26;173.20;;;68.67;;
3949;SDS011;53057;50.988;6.314;2023-02-12T08:36:03;174.00;;;64.47;;
3949;SDS011;53057;50.988;6.314;2023-02-12T08:38:30;169.93;;;67.83;;
3949;SDS011;53057;50.988;6.314;2023-02-12T08:40:59;172.53;;;64.77;;
3949;SDS011;53057;50.988;6.314;2023-02-12T08:43:26;168.73;;;65.90;;
3949;SDS011;53057;50.988;6.314;2023-02-12T08:45:53;164.47;;;64.63;;
3949;SDS011;53057;50.988;6.314;2023-02-12T08:48:21;166.33;;;67.53;;
3949;SDS011;53057;50.988;6.314;2023-02-12T08:50:47;150.33;;;63.47;;
3949;SDS011;53057;50.988;6.314;2023-02-12T08:53:14;151.10;;;61.60;;
3949;SDS011;53057;50.988;6.314;2023-02-12T08:55:46;149.33;;;57.83;;
3949;SDS011;53057;50.988;6.314;2023-02-12T08:58:13;154.10;;;59.30;;
3949;SDS011;53057;50.988;6.314;2023-02-12T09:00:39;142.47;;;60.90;;
3949;SDS011;53057;50.988;6.314;2023-02-12T09:03:06;152.97;;;63.03;;
3949;SDS011;53057;50.988;6.314;2023-02-12T09:05:36;150.23;;;65.17;;
3949;SDS011;53057;50.988;6.314;2023-02-12T09:08:03;141.23;;;59.53;;
3949;SDS011;53057;50.988;6.314;2023-02-12T09:10:30;156.97;;;64.47;;
3949;SDS011;53057;50.988;6.314;2023-02-12T09:12:56;126.60;;;57.73;;
3949;SDS011;53057;50.988;6.314;2023-02-12T09:15:23;135.30;;;59.10;;
3949;SDS011;53057;50.988;6.314;2023-02-12T09:17:49;146.80;;;63.93;;
3949;SDS011;53057;50.988;6.314;2023-02-12T09:20:16;135.93;;;63.30;;
3949;SDS011;53057;50.988;6.314;2023-02-12T09:22:43;132.63;;;60.47;;
3949;SDS011;53057;50.988;6.314;2023-02-12T09:25:09;148.30;;;65.90;;
3949;SDS011;53057;50.988;6.314;2023-02-12T09:27:36;144.63;;;69.67;;
3949;SDS011;53057;50.988;6.314;2023-02-12T09:30:03;152.50;;;64.90;;
3949;SDS011;53057;50.988;6.314;2023-02-12T09:32:29;131.03;;;61.80;;
3949;SDS011;53057;50.988;6.314;2023-02-12T09:34:56;147.07;;;64.40;;
3949;SDS011;53057;50.988;6.314;2023-02-12T09:37:23;148.87;;;69.90;;
3949;SDS011;53057;50.988;6.314;2023-02-12T09:39:49;135.70;;;59.83;;
3949;SDS011;53057;50.988;6.314;2023-02-12T09:47:24;152.80;;;66.23;;
3949;SDS011;53057;50.988;6.314;2023-02-12T09:50:05;160.97;;;68.23;;
3949;SDS011;53057;50.988;6.314;2023-02-12T09:52:36;144.47;;;64.17;;
3949;SDS011;53057;50.988;6.314;2023-02-12T09:55:03;151.63;;;69.60;;
3949;SDS011;53057;50.988;6.314;2023-02-12T09:57:36;137.33;;;61.83;;
3949;SDS011;53057;50.988;6.314;2023-02-12T10:02:49;144.17;;;64.27;;
3949;SDS011;53057;50.988;6.314;2023-02-12T10:05:39;145.83;;;66.13;;
3949;SDS011;53057;50.988;6.314;2023-02-12T10:15:29;140.03;;;60.97;;
3949;SDS011;53057;50.988;6.314;2023-02-12T10:18:00;144.63;;;63.97;;
3949;SDS011;53057;50.988;6.314;2023-02-12T10:23:39;136.17;;;65.30;;
3949;SDS011;53057;50.988;6.314;2023-02-12T10:26:24;130.63;;;59.67;;
3949;SDS011;53057;50.988;6.314;2023-02-12T10:28:51;144.63;;;63.87;;
3949;SDS011;53057;50.988;6.314;2023-02-12T10:33:46;139.17;;;61.83;;
3949;SDS011;53057;50.988;6.314;2023-02-12T10:41:32;121.30;;;57.93;;
3949;SDS011;53057;50.988;6.314;2023-02-12T10:44:00;105.50;;;53.27;;
3949;SDS011;53057;50.988;6.314;2023-02-12T10:46:29;118.77;;;57.17;;
3949;SDS011;53057;50.988;6.314;2023-02-12T10:48:56;129.27;;;60.00;;
3949;SDS011;53057;50.988;6.314;2023-02-12T10:51:29;106.27;;;55.43;;
3949;SDS011;53057;50.988;6.314;2023-02-12T10:54:29;109.17;;;56.17;;
3949;SDS011;53057;50.988;6.314;2023-02-12T10:56:46;110.40;;;53.43;;
3949;SDS011;53057;50.988;6.314;2023-02-12T10:59:20;109.60;;;53.60;;
3949;SDS011;53057;50.988;6.314;2023-02-12T11:01:47;107.63;;;52.63;;
3949;SDS011;53057;50.988;6.314;2023-02-12T11:06:56;101.07;;;54.53;;
3949;SDS011;53057;50.988;6.314;2023-02-12T11:09:27;115.37;;;54.57;;
3949;SDS011;53057;50.988;6.314;2023-02-12T11:11:54;110.23;;;52.50;;
3949;SDS011;53057;50.988;6.314;2023-02-12T11:14:21;111.50;;;56.03;;
3949;SDS011;53057;50.988;6.314;2023-02-12T11:16:52;110.23;;;53.33;;
3949;SDS011;53057;50.988;6.314;2023-02-12T11:19:20;115.87;;;51.37;;
3949;SDS011;53057;50.988;6.314;2023-02-12T11:21:47;101.47;;;52.97;;
3949;SDS011;53057;50.988;6.314;2023-02-12T11:24:28;112.67;;;53.13;;
3949;SDS011;53057;50.988;6.314;2023-02-12T11:27:39;109.70;;;56.97;;
3949;SDS011;53057;50.988;6.314;2023-02-12T11:29:46;108.23;;;54.20;;
3949;SDS011;53057;50.988;6.314;2023-02-12T11:32:17;125.70;;;54.23;;
3949;SDS011;53057;50.988;6.314;2023-02-12T11:35:03;109.03;;;54.30;;
3949;SDS011;53057;50.988;6.314;2023-02-12T11:37:30;121.10;;;56.33;;
3949;SDS011;53057;50.988;6.314;2023-02-12T11:39:58;110.40;;;53.83;;
3949;SDS011;53057;50.988;6.314;2023-02-12T11:42:25;116.57;;;55.17;;
3949;SDS011;53057;50.988;6.314;2023-02-12T11:44:52;112.10;;;55.57;;
3949;SDS011;53057;50.988;6.314;2023-02-12T11:47:20;111.17;;;55.07;;
3949;SDS011;53057;50.988;6.314;2023-02-12T11:49:49;112.73;;;54.97;;
3949;SDS011;53057;50.988;6.314;2023-02-12T11:52:20;108.57;;;55.17;;
3949;SDS011;53057;50.988;6.314;2023-02-12T11:54:49;128.27;;;60.43;;
3949;SDS011;53057;50.988;6.314;2023-02-12T12:00:04;114.70;;;56.47;;
3949;SDS011;53057;50.988;6.314;2023-02-12T12:02:38;106.40;;;53.93;;
3949;SDS011;53057;50.988;6.314;2023-02-12T12:05:12;123.57;;;57.23;;
3949;SDS011;53057;50.988;6.314;2023-02-12T12:07:42;113.80;;;53.73;;
3949;SDS011;53057;50.988;6.314;2023-02-12T12:10:19;108.37;;;53.60;;
3949;SDS011;53057;50.988;6.314;2023-02-12T12:12:47;108.03;;;56.60;;
3949;SDS011;53057;50.988;6.314;2023-02-12T12:15:29;108.13;;;48.27;;
3949;SDS011;53057;50.988;6.314;2023-02-12T12:26:52;103.77;;;51.57;;
3949;SDS011;53057;50.988;6.314;2023-02-12T12:29:27;101.53;;;51.40;;
3949;SDS011;53057;50.988;6.314;2023-02-12T12:31:58;105.73;;;51.70;;
3949;SDS011;53057;50.988;6.314;2023-02-12T12:34:26;100.27;;;51.43;;
3949;SDS011;53057;50.988;6.314;2023-02-12T12:37:13;110.73;;;56.17;;
3949;SDS011;53057;50.988;6.314;2023-02-12T12:53:06;91.53;;;38.87;;
3949;SDS011;53057;50.988;6.314;2023-02-12T12:55:47;105.17;;;48.10;;
3949;SDS011;53057;50.988;6.314;2023-02-12T13:00:51;85.00;;;41.87;;
3949;SDS011;53057;50.988;6.314;2023-02-12T13:03:41;79.63;;;40.70;;
3949;SDS011;53057;50.988;6.314;2023-02-12T13:09:02;70.63;;;39.57;;
3949;SDS011;53057;50.988;6.314;2023-02-12T13:11:46;89.40;;;46.47;;
3949;SDS011;53057;50.988;6.314;2023-02-12T13:17:10;63.83;;;31.03;;
3949;SDS011;53057;50.988;6.314;2023-02-12T13:19:41;73.53;;;33.27;;
3949;SDS011;53057;50.988;6.314;2023-02-12T13:22:20;79.53;;;37.67;;
3949;SDS011;53057;50.988;6.314;2023-02-12T13:27:24;71.30;;;33.67;;
3949;SDS011;53057;50.988;6.314;2023-02-12T13:32:26;83.53;;;44.80;;
3949;SDS011;53057;50.988;6.314;2023-02-12T13:34:54;73.23;;;39.17;;
3949;SDS011;53057;50.988;6.314;2023-02-12T13:37:31;88.57;;;39.97;;
3949;SDS011;53057;50.988;6.314;2023-02-12T13:40:02;100.70;;;44.90;;
3949;SDS011;53057;50.988;6.314;2023-02-12T13:42:38;86.33;;;40.80;;
3949;SDS011;53057;50.988;6.314;2023-02-12T13:58:47;79.50;;;40.13;;
3949;SDS011;53057;50.988;6.314;2023-02-12T14:01:34;90.57;;;42.80;;
3949;SDS011;53057;50.988;6.314;2023-02-12T14:04:15;87.07;;;43.80;;
3949;SDS011;53057;50.988;6.314;2023-02-12T14:07:11;81.80;;;42.73;;
3949;SDS011;53057;50.988;6.314;2023-02-12T14:09:38;73.70;;;40.10;;
3949;SDS011;53057;50.988;6.314;2023-02-12T14:12:08;92.77;;;42.20;;
3949;SDS011;53057;50.988;6.314;2023-02-12T14:14:36;92.90;;;42.77;;
3949;SDS011;53057;50.988;6.314;2023-02-12T14:22:55;89.63;;;45.40;;
3949;SDS011;53057;50.988;6.314;2023-02-12T14:27:45;100.57;;;46.17;;
3949;SDS011;53057;50.988;6.314;2023-02-12T14:36:11;90.37;;;48.83;;
3949;SDS011;53057;50.988;6.314;2023-02-12T14:38:06;86.63;;;46.10;;
3949;SDS011;53057;50.988;6.314;2023-02-12T14:40:49;85.60;;;45.80;;
3949;SDS011;53057;50.988;6.314;2023-02-12T14:43:32;81.23;;;44.40;;
3949;SDS011;53057;50.988;6.314;2023-02-12T14:51:16;91.50;;;45.13;;
3949;SDS011;53057;50.988;6.314;2023-02-12T14:53:45;97.57;;;49.07;;
3949;SDS011;53057;50.988;6.314;2023-02-12T14:56:16;90.67;;;45.77;;
3949;SDS011;53057;50.988;6.314;2023-02-12T14:58:44;87.77;;;46.07;;
3949;SDS011;53057;50.988;6.314;2023-02-12T15:01:11;89.73;;;48.17;;
3949;SDS011;53057;50.988;6.314;2023-02-12T15:11:49;110.37;;;53.87;;
3949;SDS011;53057;50.988;6.314;2023-02-12T15:21:57;120.43;;;52.80;;
3949;SDS011;53057;50.988;6.314;2023-02-12T15:24:24;100.10;;;51.77;;
3949;SDS011;53057;50.988;6.314;2023-02-12T15:26:52;123.93;;;53.30;;
3949;SDS011;53057;50.988;6.314;2023-02-12T15:31:53;108.37;;;50.47;;
3949;SDS011;53057;50.988;6.314;2023-02-12T15:34:21;103.53;;;52.73;;
3949;SDS011;53057;50.988;6.314;2023-02-12T15:36:49;94.40;;;48.10;;
3949;SDS011;53057;50.988;6.314;2023-02-12T15:39:17;99.30;;;49.60;;
3949;SDS011;53057;50.988;6.314;2023-02-12T15:41:45;94.23;;;47.70;;
3949;SDS011;53057;50.988;6.314;2023-02-12T15:44:29;91.37;;;46.20;;
3949;SDS011;53057;50.988;6.314;2023-02-12T15:46:57;103.47;;;48.43;;
3949;SDS011;53057;50.988;6.314;2023-02-12T15:49:31;103.87;;;47.37;;
3949;SDS011;53057;50.988;6.314;2023-02-12T15:51:59;93.27;;;46.97;;
3949;SDS011;53057;50.988;6.314;2023-02-12T15:54:26;110.47;;;53.30;;
3949;SDS011;53057;50.988;6.314;2023-02-12T15:56:53;95.73;;;48.80;;
3949;SDS011;53057;50.988;6.314;2023-02-12T15:59:22;105.47;;;49.23;;
3949;SDS011;53057;50.988;6.314;2023-02-12T16:01:56;110.03;;;51.13;;
3949;SDS011;53057;50.988;6.314;2023-02-12T16:04:24;97.03;;;48.20;;
3949;SDS011;53057;50.988;6.314;2023-02-12T16:06:51;85.40;;;46.63;;
3949;SDS011;53057;50.988;6.314;2023-02-12T16:09:23;101.60;;;51.30;;
3949;SDS011;53057;50.988;6.314;2023-02-12T16:11:54;106.13;;;50.07;;
3949;SDS011;53057;50.988;6.314;2023-02-12T16:14:30;110.00;;;49.97;;
3949;SDS011;53057;50.988;6.314;2023-02-12T16:16:58;108.33;;;51.63;;
3949;SDS011;53057;50.988;6.314;2023-02-12T16:19:27;88.73;;;45.03;;
3949;SDS011;53057;50.988;6.314;2023-02-12T16:22:06;104.67;;;49.60;;
3949;SDS011;53057;50.988;6.314;2023-02-12T16:24:34;95.50;;;48.07;;
3949;SDS011;53057;50.988;6.314;2023-02-12T16:27:07;106.10;;;50.50;;
3949;SDS011;53057;50.988;6.314;2023-02-12T16:29:35;103.23;;;47.80;;
3949;SDS011;53057;50.988;6.314;2023-02-12T16:32:06;106.63;;;53.77;;
3949;SDS011;53057;50.988;6.314;2023-02-12T16:34:34;107.70;;;53.07;;
3949;SDS011;53057;50.988;6.314;2023-02-12T16:37:07;112.93;;;51.50;;
3949;SDS011;53057;50.988;6.314;2023-02-12T16:42:26;113.80;;;52.70;;
3949;SDS011;53057;50.988;6.314;2023-02-12T16:44:55;114.37;;;53.23;;
3949;SDS011;53057;50.988;6.314;2023-02-12T16:47:22;112.03;;;52.80;;
3949;SDS011;53057;50.988;6.314;2023-02-12T16:49:53;119.07;;;54.67;;
3949;SDS011;53057;50.988;6.314;2023-02-12T16:54:57;114.83;;;51.73;;
3949;SDS011;53057;50.988;6.314;2023-02-12T16:57:25;105.47;;;49.37;;
3949;SDS011;53057;50.988;6.314;2023-02-12T16:59:51;122.27;;;53.60;;
3949;SDS011;53057;50.988;6.314;2023-02-12T17:02:18;127.13;;;53.93;;
3949;SDS011;53057;50.988;6.314;2023-02-12T17:04:45;132.10;;;58.00;;
3949;SDS011;53057;50.988;6.314;2023-02-12T17:07:20;121.23;;;53.93;;
3949;SDS011;53057;50.988;6.314;2023-02-12T17:09:47;128.57;;;58.67;;
3949;SDS011;53057;50.988;6.314;2023-02-12T17:12:14;121.17;;;55.60;;
3949;SDS011;53057;50.988;6.314;2023-02-12T17:14:41;126.87;;;58.20;;